createdAt,value
2022-08-17T00:02:26.565Z,88.70
2022-08-17T00:05:32.099Z,88.70
2022-08-17T00:08:37.617Z,88.70
2022-08-17T00:12:40.524Z,89.20
2022-08-17T00:15:10.562Z,89.60
2022-08-17T00:19:06.203Z,90.00
2022-08-17T00:22:32.214Z,90.20
2022-08-17T00:25:03.787Z,90.40
2022-08-17T00:28:08.592Z,90.70
2022-08-17T00:31:13.229Z,91.10
2022-08-17T00:34:16.477Z,91.10
2022-08-17T00:37:19.601Z,91.10
2022-08-17T00:40:24.580Z,91.50
2022-08-17T00:43:33.652Z,91.50
2022-08-17T00:46:40.421Z,91.50
2022-08-17T00:49:43.561Z,91.70
2022-08-17T00:52:52.593Z,91.70
2022-08-17T00:55:56.111Z,91.90
2022-08-17T00:59:02.323Z,92.00
2022-08-17T01:02:07.420Z,92.10
2022-08-17T01:05:15.655Z,92.50
2022-08-17T01:08:23.066Z,92.50
2022-08-17T01:11:26.459Z,92.60
2022-08-17T01:14:30.931Z,92.80
2022-08-17T01:17:34.806Z,92.80
2022-08-17T01:20:48.250Z,92.90
2022-08-17T01:23:53.278Z,93.10
2022-08-17T01:26:57.641Z,93.30
2022-08-17T01:30:05.222Z,93.50
2022-08-17T01:33:28.984Z,93.70
2022-08-17T01:36:32.134Z,93.70
2022-08-17T01:39:42.020Z,93.80
2022-08-17T01:42:50.240Z,93.80
2022-08-17T01:46:03.177Z,93.80
2022-08-17T01:49:08.792Z,93.70
2022-08-17T01:52:12.686Z,93.90
2022-08-17T01:55:25.884Z,94.00
2022-08-17T01:58:30.441Z,94.10
2022-08-17T02:01:35.632Z,94.30
2022-08-17T02:04:38.784Z,94.40
2022-08-17T02:08:00.094Z,94.60
2022-08-17T02:11:11.205Z,94.90
2022-08-17T02:14:15.568Z,95.00
2022-08-17T02:17:18.689Z,95.10
2022-08-17T02:20:42.108Z,95.10
2022-08-17T02:23:49.367Z,95.20
2022-08-17T02:26:53.877Z,95.30
2022-08-17T02:29:57.647Z,95.40
2022-08-17T02:33:04.132Z,95.50
2022-08-17T02:36:10.274Z,95.60
2022-08-17T02:39:14.259Z,95.60
2022-08-17T02:42:18.745Z,95.60
2022-08-17T02:45:25.402Z,95.70
2022-08-17T02:48:31.404Z,95.90
2022-08-17T02:51:35.723Z,96.10
2022-08-17T02:54:41.765Z,96.30
2022-08-17T02:57:46.848Z,96.40
2022-08-17T03:00:49.972Z,96.40
2022-08-17T03:03:53.095Z,96.40
2022-08-17T03:06:56.300Z,96.50
2022-08-17T03:10:00.249Z,96.40
2022-08-17T03:13:05.651Z,96.60
2022-08-17T03:16:10.224Z,96.70
2022-08-17T03:19:13.297Z,96.70
2022-08-17T03:22:36.220Z,96.90
2022-08-17T03:25:43.486Z,96.90
2022-08-17T03:28:48.596Z,97.60
2022-08-17T03:31:52.436Z,97.50
2022-08-17T03:34:59.514Z,97.50
2022-08-17T03:38:02.733Z,97.60
2022-08-17T03:41:07.061Z,97.60
2022-08-17T03:44:11.540Z,97.60
2022-08-17T03:47:32.184Z,98.30
2022-08-17T03:50:53.188Z,98.00
2022-08-17T03:54:28.104Z,98.00
2022-08-17T03:57:32.229Z,98.30
2022-08-17T04:00:39.665Z,98.50
2022-08-17T04:03:43.003Z,98.70
2022-08-17T04:06:46.488Z,98.80
2022-08-17T04:09:49.982Z,98.80
2022-08-17T04:12:55.640Z,99.00
2022-08-17T04:16:00.150Z,99.00
2022-08-17T04:19:03.875Z,98.90
2022-08-17T04:22:07.230Z,99.00
2022-08-17T04:25:17.842Z,99.00
2022-08-17T04:28:21.989Z,99.10
2022-08-17T04:31:28.030Z,99.20
2022-08-17T04:34:31.139Z,99.20
2022-08-17T04:37:34.231Z,99.30
2022-08-17T04:40:54.651Z,99.20
2022-08-17T04:43:58.572Z,99.10
2022-08-17T04:47:03.117Z,99.10
2022-08-17T04:50:07.011Z,99.20
2022-08-17T04:53:10.159Z,99.30
2022-08-17T04:56:16.984Z,99.40
2022-08-17T04:59:23.009Z,99.40
2022-08-17T05:02:27.476Z,99.40
2022-08-17T05:05:32.622Z,99.40
2022-08-17T05:08:35.983Z,99.30
2022-08-17T05:11:40.394Z,99.10
2022-08-17T05:14:48.168Z,98.70
2022-08-17T05:17:52.625Z,98.10
2022-08-17T05:20:56.115Z,98.00
2022-08-17T05:23:59.522Z,97.60
2022-08-17T05:27:06.588Z,97.20
2022-08-17T05:30:10.457Z,96.90
2022-08-17T05:33:17.679Z,96.60
2022-08-17T05:36:42.768Z,96.00
2022-08-17T05:39:43.910Z,95.30
2022-08-17T05:42:47.078Z,94.40
2022-08-17T05:45:58.623Z,93.40
2022-08-17T05:49:07.957Z,92.60
2022-08-17T05:52:22.008Z,91.50
2022-08-17T05:55:31.866Z,90.20
2022-08-17T05:58:48.261Z,88.50
2022-08-17T06:01:59.349Z,85.50
2022-08-17T06:05:15.581Z,83.30
2022-08-17T06:08:26.673Z,81.90
2022-08-17T06:11:38.025Z,79.90
2022-08-17T06:14:58.901Z,77.90
2022-08-17T06:18:05.409Z,75.30
2022-08-17T06:21:14.498Z,73.30
2022-08-17T06:24:28.555Z,71.50
2022-08-17T06:27:36.843Z,69.60
2022-08-17T06:30:58.613Z,67.00
2022-08-17T06:34:07.788Z,63.70
2022-08-17T06:37:27.729Z,61.60
2022-08-17T06:40:55.382Z,58.90
2022-08-17T06:44:12.773Z,57.30
2022-08-17T06:47:38.224Z,56.60
2022-08-17T06:50:45.541Z,54.10
2022-08-17T06:53:56.841Z,52.70
2022-08-17T06:57:06.385Z,51.70
2022-08-17T07:00:17.332Z,50.10
2022-08-17T07:03:29.402Z,48.30
2022-08-17T07:06:38.517Z,46.50
2022-08-17T07:09:44.067Z,45.10
2022-08-17T07:12:47.888Z,43.90
2022-08-17T07:15:57.183Z,42.50
2022-08-17T07:19:01.055Z,41.00
2022-08-17T07:22:18.082Z,39.80
2022-08-17T07:25:22.748Z,38.80
2022-08-17T07:28:27.958Z,37.70
2022-08-17T07:31:33.560Z,36.20
2022-08-17T07:35:07.524Z,35.10
2022-08-17T07:38:24.750Z,33.80
2022-08-17T07:41:57.896Z,32.50
2022-08-17T07:45:19.811Z,31.30
2022-08-17T07:48:24.707Z,30.00
2022-08-17T07:51:30.417Z,29.60
2022-08-17T07:54:36.872Z,29.20
2022-08-17T07:57:41.357Z,28.60
2022-08-17T08:00:44.581Z,27.80
2022-08-17T08:03:52.436Z,27.10
2022-08-17T08:06:59.538Z,26.40
2022-08-17T08:10:07.197Z,25.70
2022-08-17T08:13:15.858Z,25.90
2022-08-17T08:16:27.637Z,25.50
2022-08-17T08:19:32.564Z,25.30
2022-08-17T08:22:51.396Z,25.30
2022-08-17T08:26:18.279Z,25.70
2022-08-17T08:29:32.754Z,25.40
2022-08-17T08:32:50.291Z,25.10
2022-08-17T08:35:56.714Z,24.30
2022-08-17T08:39:04.682Z,24.40
2022-08-17T08:42:17.629Z,24.00
2022-08-17T08:45:30.541Z,24.80
2022-08-17T08:49:12.273Z,24.40
2022-08-17T08:52:31.019Z,24.10
2022-08-17T08:55:46.499Z,23.70
2022-08-17T08:58:57.289Z,23.10
2022-08-17T09:02:19.133Z,23.80
2022-08-17T09:05:36.639Z,23.60
2022-08-17T09:08:53.998Z,23.60
2022-08-17T09:12:04.235Z,24.00
2022-08-17T09:15:17.701Z,24.10
2022-08-17T09:19:01.263Z,24.50
2022-08-17T09:21:55.237Z,25.60
2022-08-17T09:25:05.370Z,27.10
2022-08-17T09:28:16.840Z,27.60
2022-08-17T09:31:24.102Z,28.70
2022-08-17T09:34:36.217Z,30.10
2022-08-17T09:37:52.416Z,31.70
2022-08-17T09:41:02.846Z,33.80
2022-08-17T09:44:22.935Z,35.20
2022-08-17T09:47:32.711Z,36.30
2022-08-17T09:51:04.141Z,37.30
2022-08-17T09:54:35.205Z,38.20
2022-08-17T09:57:44.727Z,39.10
2022-08-17T10:00:55.562Z,39.90
2022-08-17T10:04:19.973Z,40.40
2022-08-17T10:07:31.605Z,40.60
2022-08-17T10:10:42.002Z,39.50
2022-08-17T10:14:03.769Z,40.40
2022-08-17T10:17:35.295Z,41.00
2022-08-17T10:20:47.763Z,40.20
2022-08-17T10:24:21.863Z,40.60
2022-08-17T10:27:30.323Z,41.50
2022-08-17T10:30:37.813Z,40.80
2022-08-17T10:33:55.460Z,41.10
2022-08-17T10:37:10.602Z,40.90
2022-08-17T10:40:33.728Z,40.70
2022-08-17T10:44:37.972Z,41.20
2022-08-17T10:47:24.137Z,40.70
2022-08-17T10:50:59.563Z,39.90
2022-08-17T10:54:02.935Z,40.80
2022-08-17T10:57:40.073Z,41.10
2022-08-17T11:01:02.251Z,41.40
2022-08-17T11:04:12.411Z,40.70
2022-08-17T11:07:25.821Z,40.70
2022-08-17T11:10:51.936Z,40.90
2022-08-17T11:14:14.203Z,39.80
2022-08-17T11:17:35.409Z,40.10
2022-08-17T11:21:06.194Z,40.80
2022-08-17T11:24:17.659Z,40.00
2022-08-17T11:27:26.500Z,40.00
2022-08-17T11:30:47.095Z,40.10
2022-08-17T11:34:15.179Z,39.60
2022-08-17T11:37:35.795Z,39.30
2022-08-17T11:41:01.606Z,39.70
2022-08-17T11:44:16.899Z,38.60
2022-08-17T11:47:53.019Z,38.50
2022-08-17T11:51:43.010Z,38.20
2022-08-17T11:54:47.909Z,38.70
2022-08-17T11:58:01.747Z,38.90
2022-08-17T12:01:06.722Z,37.00
2022-08-17T12:04:28.053Z,38.20
2022-08-17T12:07:34.090Z,38.90
2022-08-17T12:10:42.916Z,38.20
2022-08-17T12:13:50.543Z,38.90
2022-08-17T12:17:06.197Z,37.50
2022-08-17T12:20:16.345Z,37.40
2022-08-17T12:23:24.799Z,37.30
2022-08-17T12:26:31.358Z,37.10
2022-08-17T12:29:38.629Z,37.30
2022-08-17T12:32:46.098Z,36.30
2022-08-17T12:36:00.390Z,36.40
2022-08-17T12:39:14.369Z,36.40
2022-08-17T12:42:29.357Z,35.30
2022-08-17T12:45:34.576Z,35.70
2022-08-17T12:48:37.775Z,34.50
2022-08-17T12:51:46.259Z,35.10
2022-08-17T12:54:59.451Z,34.10
2022-08-17T12:58:03.284Z,34.70
2022-08-17T13:01:09.908Z,35.10
2022-08-17T13:04:14.943Z,35.40
2022-08-17T13:07:30.663Z,36.00
2022-08-17T13:10:35.648Z,38.20
2022-08-17T13:13:41.240Z,38.50
2022-08-17T13:16:51.090Z,37.70
2022-08-17T13:19:54.941Z,36.50
2022-08-17T13:23:02.257Z,37.10
2022-08-17T13:26:09.477Z,37.00
2022-08-17T13:29:21.952Z,37.50
2022-08-17T13:32:36.124Z,37.70
2022-08-17T13:35:50.022Z,38.10
2022-08-17T13:39:07.674Z,38.00
2022-08-17T13:42:32.956Z,37.80
2022-08-17T13:45:50.859Z,37.50
2022-08-17T13:49:03.382Z,37.50
2022-08-17T13:52:06.655Z,38.00
2022-08-17T13:55:19.857Z,38.00
2022-08-17T13:58:27.198Z,38.10
2022-08-17T14:01:33.277Z,38.20
2022-08-17T14:04:36.531Z,37.80
2022-08-17T14:07:41.015Z,37.80
2022-08-17T14:10:46.129Z,38.10
2022-08-17T14:13:49.266Z,38.00
2022-08-17T14:16:52.872Z,38.40
2022-08-17T14:19:56.232Z,38.00
2022-08-17T14:22:59.380Z,38.70
2022-08-17T14:26:03.961Z,38.40
2022-08-17T14:29:15.467Z,38.60
2022-08-17T14:32:23.785Z,39.10
2022-08-17T14:35:28.141Z,39.10
2022-08-17T14:38:31.424Z,39.40
2022-08-17T14:41:36.517Z,39.10
2022-08-17T14:44:39.743Z,38.80
2022-08-17T14:47:43.319Z,38.70
2022-08-17T14:50:46.537Z,38.50
2022-08-17T14:53:50.112Z,38.70
2022-08-17T14:57:00.923Z,38.40
2022-08-17T15:00:18.012Z,38.20
2022-08-17T15:03:21.156Z,37.60
2022-08-17T15:06:24.872Z,38.00
2022-08-17T15:09:27.974Z,38.00
2022-08-17T15:12:36.677Z,38.40
2022-08-17T15:15:40.410Z,38.20
2022-08-17T15:18:43.548Z,38.40
2022-08-17T15:21:47.030Z,37.80
2022-08-17T15:24:50.181Z,37.20
2022-08-17T15:27:55.580Z,36.60
2022-08-17T15:30:58.723Z,37.60
2022-08-17T15:34:02.034Z,37.60
2022-08-17T15:37:05.216Z,37.30
2022-08-17T15:40:10.344Z,37.70
2022-08-17T15:43:20.068Z,37.20
2022-08-17T15:46:27.239Z,37.70
2022-08-17T15:49:30.383Z,38.10
2022-08-17T15:52:37.941Z,38.30
2022-08-17T15:55:41.067Z,38.10
2022-08-17T15:58:47.665Z,38.50
2022-08-17T16:03:14.597Z,38.70
2022-08-17T16:05:18.830Z,38.50
2022-08-17T16:08:23.133Z,39.20
2022-08-17T16:11:27.458Z,39.30
2022-08-17T16:14:34.248Z,39.40
2022-08-17T16:17:39.810Z,39.60
2022-08-17T16:20:44.007Z,38.20
2022-08-17T16:23:48.005Z,38.20
2022-08-17T16:26:51.110Z,38.90
2022-08-17T16:29:55.656Z,38.90
2022-08-17T16:33:01.224Z,39.20
2022-08-17T16:36:04.813Z,39.50
2022-08-17T16:39:08.065Z,39.70
2022-08-17T16:42:24.566Z,39.60
2022-08-17T16:45:40.533Z,39.60
2022-08-17T16:48:46.812Z,39.80
2022-08-17T16:51:49.917Z,40.10
2022-08-17T16:54:55.435Z,40.00
2022-08-17T16:57:58.622Z,40.20
2022-08-17T17:01:03.240Z,40.50
2022-08-17T17:04:07.568Z,40.80
2022-08-17T17:07:25.770Z,40.90
2022-08-17T17:10:34.306Z,40.60
2022-08-17T17:13:42.049Z,40.80
2022-08-17T17:16:52.753Z,40.90
2022-08-17T17:20:01.690Z,41.20
2022-08-17T17:23:11.258Z,41.40
2022-08-17T17:26:28.508Z,41.60
2022-08-17T17:29:49.724Z,42.00
2022-08-17T17:32:56.797Z,42.20
2022-08-17T17:36:01.681Z,42.30
2022-08-17T17:39:10.766Z,42.40
2022-08-17T17:42:20.098Z,42.50
2022-08-17T17:45:26.315Z,42.80
2022-08-17T17:48:31.723Z,43.10
2022-08-17T17:52:09.327Z,43.50
2022-08-17T17:55:30.772Z,43.90
2022-08-17T17:58:45.724Z,44.00
2022-08-17T18:01:57.349Z,44.20
2022-08-17T18:05:07.656Z,44.60
2022-08-17T18:08:32.066Z,44.90
2022-08-17T18:12:03.822Z,45.50
2022-08-17T18:15:24.792Z,45.80
2022-08-17T18:18:40.821Z,46.30
2022-08-17T18:21:49.948Z,46.60
2022-08-17T18:24:56.450Z,47.10
2022-08-17T18:27:59.621Z,47.40
2022-08-17T18:31:13.126Z,47.90
2022-08-17T18:34:45.885Z,48.10
2022-08-17T18:37:52.064Z,48.60
2022-08-17T18:41:02.580Z,49.30
2022-08-17T18:44:20.387Z,50.10
2022-08-17T18:47:25.786Z,50.50
2022-08-17T18:50:35.473Z,51.10
2022-08-17T18:53:41.930Z,52.10
2022-08-17T18:56:49.994Z,51.80
2022-08-17T18:59:53.262Z,52.00
2022-08-17T19:02:58.776Z,52.00
2022-08-17T19:06:18.925Z,52.20
2022-08-17T19:09:34.942Z,52.80
2022-08-17T19:12:43.121Z,52.90
2022-08-17T19:16:11.651Z,53.50
2022-08-17T19:19:20.384Z,53.90
2022-08-17T19:22:30.757Z,54.30
2022-08-17T19:25:40.238Z,54.50
2022-08-17T19:28:48.717Z,54.50
2022-08-17T19:31:55.232Z,54.50
2022-08-17T19:34:58.817Z,54.80
2022-08-17T19:38:12.857Z,55.10
2022-08-17T19:41:23.679Z,55.40
2022-08-17T19:44:47.197Z,55.70
2022-08-17T19:48:03.148Z,56.40
2022-08-17T19:51:11.503Z,56.60
2022-08-17T19:54:20.990Z,56.60
2022-08-17T19:57:38.103Z,56.60
2022-08-17T20:00:47.786Z,56.50
2022-08-17T20:04:01.101Z,57.20
2022-08-17T20:07:08.108Z,57.50
2022-08-17T20:10:19.225Z,58.20
2022-08-17T20:13:33.313Z,57.70
2022-08-17T20:16:37.111Z,58.10
2022-08-17T20:19:49.655Z,58.30
2022-08-17T20:22:59.393Z,58.10
2022-08-17T20:26:10.594Z,58.20
2022-08-17T20:29:36.991Z,58.40
2022-08-17T20:32:53.172Z,58.50
2022-08-17T20:36:12.962Z,58.60
2022-08-17T20:39:34.787Z,58.80
2022-08-17T20:42:39.003Z,59.30
2022-08-17T20:46:02.848Z,59.40
2022-08-17T20:49:19.084Z,59.70
2022-08-17T20:52:46.494Z,60.00
2022-08-17T20:55:55.830Z,60.00
2022-08-17T20:59:00.654Z,60.20
2022-08-17T21:02:18.514Z,60.40
2022-08-17T21:05:34.349Z,60.70
2022-08-17T21:08:45.699Z,61.00
2022-08-17T21:12:04.705Z,61.30
2022-08-17T21:15:28.565Z,61.60
2022-08-17T21:18:40.125Z,61.80
2022-08-17T21:21:53.116Z,62.00
2022-08-17T21:25:10.654Z,61.90
2022-08-17T21:28:21.388Z,62.10
2022-08-17T21:31:36.138Z,62.00
2022-08-17T21:34:43.505Z,62.30
2022-08-17T21:37:49.438Z,61.90
2022-08-17T21:40:55.209Z,62.10
2022-08-17T21:44:05.386Z,62.40
2022-08-17T21:47:20.335Z,62.80
2022-08-17T21:50:26.185Z,63.00
2022-08-17T21:53:40.367Z,63.30
2022-08-17T21:56:48.292Z,63.60
2022-08-17T21:59:57.255Z,64.70
2022-08-17T22:03:02.567Z,63.80
2022-08-17T22:06:23.922Z,64.10
2022-08-17T22:09:31.877Z,64.20
2022-08-17T22:12:36.524Z,64.40
2022-08-17T22:15:40.262Z,64.50
2022-08-17T22:18:45.159Z,64.50
2022-08-17T22:22:02.630Z,64.50
2022-08-17T22:25:08.869Z,64.70
2022-08-17T22:28:13.511Z,65.10
2022-08-17T22:31:19.377Z,64.90
2022-08-17T22:34:22.555Z,65.00
2022-08-17T22:37:30.052Z,65.00
2022-08-17T22:40:35.328Z,65.20
2022-08-17T22:43:40.368Z,65.60
2022-08-17T22:46:57.087Z,65.90
2022-08-17T22:50:02.794Z,66.10
2022-08-17T22:53:33.715Z,66.20
2022-08-17T22:56:55.479Z,66.60
2022-08-17T22:59:58.745Z,66.70
2022-08-17T23:03:09.087Z,67.30
2022-08-17T23:06:12.646Z,67.90
2022-08-17T23:09:17.131Z,68.20
2022-08-17T23:12:26.507Z,68.50
2022-08-17T23:15:33.231Z,69.20
2022-08-17T23:18:37.418Z,70.30
2022-08-17T23:21:41.141Z,70.90
2022-08-17T23:24:49.715Z,70.80
2022-08-17T23:27:53.089Z,71.10
2022-08-17T23:30:56.440Z,71.30
2022-08-17T23:33:59.823Z,71.10
2022-08-17T23:37:04.351Z,70.80
2022-08-17T23:40:10.261Z,71.40
2022-08-17T23:46:36.330Z,71.40
2022-08-17T23:49:40.587Z,71.40
2022-08-17T23:52:45.684Z,71.60
2022-08-17T23:56:07.585Z,72.40
2022-08-17T23:59:14.045Z,72.00
